Time;durP1;ratioP1;P1;durP2;ratioP2;P2;SDS_P1;SDS_P2;PMS_P1;PMS_P2;Temp;Humidity;BMP_temperature;BMP_pressure;BME280_temperature;BME280_humidity;BME280_pressure;Samples;Min_cycle;Max_cycle;Signal;HPM_P1;HPM_P2
2023/08/28 00:02:25;;;;;;;3.43;3.07;;;;;;;14.71;nan;96588.94;5012901;28;20623;-61
2023/08/28 00:04:53;;;;;;;2.90;2.70;;;;;;;14.70;nan;96588.16;5004519;28;20208;-59
2023/08/28 00:07:22;;;;;;;4.50;2.73;;;;;;;14.65;nan;96577.31;5007915;28;20306;-61
2023/08/28 00:09:50;;;;;;;5.57;2.63;;;;;;;14.66;nan;96576.28;4899701;28;20756;-60
2023/08/28 00:12:21;;;;;;;3.10;2.70;;;;;;;14.50;nan;96576.88;5016704;28;20209;-57
2023/08/28 00:14:49;;;;;;;3.40;2.67;;;;;;;14.54;nan;96573.56;5011793;28;20220;-61
2023/08/28 00:17:17;;;;;;;2.50;2.40;;;;;;;14.49;nan;96573.41;5014588;28;20235;-60
2023/08/28 00:19:45;;;;;;;2.93;2.73;;;;;;;14.41;nan;96560.41;4967711;28;20892;-61
2023/08/28 00:22:13;;;;;;;2.80;2.60;;;;;;;14.43;nan;96572.44;4981532;28;20740;-61
2023/08/28 00:24:41;;;;;;;3.07;2.87;;;;;;;14.43;nan;96568.97;4993340;28;20577;-61
2023/08/28 00:27:09;;;;;;;2.93;2.80;;;;;;;14.44;nan;96557.28;5014561;28;20220;-59
2023/08/28 00:29:37;;;;;;;2.73;2.53;;;;;;;14.45;nan;96550.91;5017533;28;20207;-59
2023/08/28 00:32:05;;;;;;;2.77;2.57;;;;;;;14.50;nan;96550.22;5018520;28;20205;-63
2023/08/28 00:34:34;;;;;;;2.50;2.30;;;;;;;14.53;nan;96552.44;5011909;28;20204;-60
2023/08/28 00:37:02;;;;;;;3.00;2.80;;;;;;;14.47;nan;96546.16;5016819;28;20247;-61
2023/08/28 00:39:30;;;;;;;2.73;2.63;;;;;;;14.47;nan;96546.97;5015505;28;20204;-60
2023/08/28 00:42:02;;;;;;;2.73;2.63;;;;;;;14.41;nan;96533.75;4991938;28;20208;-60
2023/08/28 00:44:32;;;;;;;3.20;2.90;;;;;;;14.48;nan;96548.59;4934135;28;20212;-61
2023/08/28 00:47:00;;;;;;;3.43;2.87;;;;;;;14.51;nan;96550.00;5022124;28;20228;-62
2023/08/28 00:49:28;;;;;;;3.13;2.93;;;;;;;14.52;nan;96542.81;5013919;28;20207;-60
2023/08/28 00:51:58;;;;;;;3.17;2.97;;;;;;;14.46;nan;96532.03;5016528;28;20200;-61
2023/08/28 00:54:26;;;;;;;3.13;2.93;;;;;;;14.43;nan;96537.81;4969364;28;20213;-59
2023/08/28 00:56:55;;;;;;;3.10;2.90;;;;;;;14.44;nan;96534.09;5008987;28;20232;-60
2023/08/28 00:59:23;;;;;;;3.17;3.07;;;;;;;14.46;nan;96526.69;5014544;28;20608;-61
2023/08/28 01:01:50;;;;;;;3.20;3.00;;;;;;;14.45;nan;96516.25;5020265;28;20291;-61
2023/08/28 01:04:18;;;;;;;3.43;3.23;;;;;;;14.39;nan;96523.31;5013391;28;20241;-61
2023/08/28 01:06:49;;;;;;;3.27;3.00;;;;;;;14.42;nan;96530.03;5014258;28;20207;-59
2023/08/28 01:09:29;;;;;;;3.20;3.00;;;;;;;14.42;nan;96530.03;5013601;28;20223;-59
2023/08/28 01:12:04;;;;;;;3.77;3.47;;;;;;;14.37;nan;96506.72;4996697;28;20201;-60
2023/08/28 01:14:46;;;;;;;4.40;3.17;;;;;;;14.48;nan;96526.47;4836355;28;21465;-60
2023/08/28 01:17:14;;;;;;;3.40;3.20;;;;;;;14.48;nan;96515.81;5016050;28;20231;-61
2023/08/28 01:19:42;;;;;;;3.13;2.93;;;;;;;14.48;nan;96534.47;4968094;28;21555;-60
2023/08/28 01:22:13;;;;;;;3.30;3.10;;;;;;;14.45;nan;96537.59;5008731;28;20290;-60
2023/08/28 01:24:45;;;;;;;5.67;3.40;;;;;;;14.38;nan;96537.66;4957333;28;21669;-62
2023/08/28 01:27:16;;;;;;;3.67;3.47;;;;;;;14.40;nan;96534.78;5017345;28;20479;-60
2023/08/28 01:29:43;;;;;;;3.60;3.30;;;;;;;14.37;nan;96537.88;5013411;28;20192;-58
2023/08/28 01:32:11;;;;;;;3.63;3.33;;;;;;;14.33;nan;96543.66;5017007;28;20628;-61
2023/08/28 01:34:40;;;;;;;3.97;3.67;;;;;;;14.32;nan;96547.34;4962772;28;20209;-58
2023/08/28 01:37:11;;;;;;;5.23;3.70;;;;;;;14.36;nan;96547.72;5016009;28;20239;-58
2023/08/28 01:39:42;;;;;;;5.30;3.17;;;;;;;14.39;nan;96555.28;4966087;28;20212;-59
2023/08/28 01:42:10;;;;;;;3.47;3.27;;;;;;;14.41;nan;96557.72;5016266;28;20200;-60
2023/08/28 01:44:40;;;;;;;3.87;3.67;;;;;;;14.40;nan;96562.22;5012916;28;20204;-58
2023/08/28 01:47:08;;;;;;;4.80;4.50;;;;;;;14.41;nan;96555.88;5011412;28;20323;-60
2023/08/28 01:49:38;;;;;;;5.53;5.03;;;;;;;14.41;nan;96550.53;4936996;28;20296;-59
2023/08/28 01:52:06;;;;;;;4.90;4.60;;;;;;;14.27;nan;96559.75;5016610;28;20208;-58
2023/08/28 01:54:35;;;;;;;5.10;4.80;;;;;;;14.31;nan;96555.59;4892614;28;20216;-61
2023/08/28 01:57:02;;;;;;;6.00;5.53;;;;;;;14.27;nan;96552.53;5019367;28;20822;-60
2023/08/28 01:59:30;;;;;;;5.30;5.00;;;;;;;14.38;nan;96555.50;5011816;28;20203;-59
2023/08/28 02:01:59;;;;;;;5.37;5.07;;;;;;;14.40;nan;96553.44;5012888;28;20215;-59
2023/08/28 02:04:27;;;;;;;6.43;5.83;;;;;;;14.47;nan;96560.28;4949955;28;20980;-60
2023/08/28 02:06:55;;;;;;;5.90;5.30;;;;;;;14.39;nan;96559.78;5017445;28;20714;-60
2023/08/28 02:09:23;;;;;;;6.47;5.83;;;;;;;14.35;nan;96561.28;4947580;28;20236;-61
2023/08/28 02:11:51;;;;;;;6.57;5.50;;;;;;;14.35;nan;96556.75;5017172;28;20270;-59
2023/08/28 02:14:18;;;;;;;6.63;5.37;;;;;;;14.35;nan;96554.09;5010355;28;20446;-62
2023/08/28 02:16:47;;;;;;;6.07;5.57;;;;;;;14.38;nan;96561.66;5015072;28;20637;-60
2023/08/28 02:19:16;;;;;;;5.67;5.37;;;;;;;14.30;nan;96559.28;4920969;28;21152;-61
2023/08/28 02:21:44;;;;;;;5.90;5.47;;;;;;;14.31;nan;96560.91;4989065;28;20223;-60
2023/08/28 02:24:12;;;;;;;5.77;5.27;;;;;;;14.28;nan;96551.50;5014622;28;20208;-62
2023/08/28 02:26:40;;;;;;;6.70;6.30;;;;;;;14.35;nan;96566.59;5013879;28;20497;-62
2023/08/28 02:29:08;;;;;;;5.70;5.20;;;;;;;14.33;nan;96564.16;5015361;28;20246;-61
2023/08/28 02:31:36;;;;;;;5.73;5.23;;;;;;;14.38;nan;96566.97;5016942;28;20211;-62
2023/08/28 02:34:04;;;;;;;5.43;4.93;;;;;;;14.35;nan;96559.44;4993827;28;20211;-62
2023/08/28 02:36:33;;;;;;;6.63;6.10;;;;;;;14.26;nan;96558.91;4988416;28;20213;-60
2023/08/28 02:39:01;;;;;;;5.73;5.43;;;;;;;14.19;nan;96544.84;5008261;28;20207;-62
2023/08/28 02:41:29;;;;;;;5.80;5.30;;;;;;;14.14;nan;96548.19;5015516;28;20209;-59
2023/08/28 02:43:56;;;;;;;4.83;4.53;;;;;;;14.25;nan;96551.16;5016816;28;20211;-63
2023/08/28 02:46:24;;;;;;;5.23;4.83;;;;;;;14.24;nan;96549.53;5012890;28;20297;-62
2023/08/28 02:48:52;;;;;;;5.43;5.03;;;;;;;14.27;nan;96544.56;5017588;28;20247;-60
2023/08/28 02:51:20;;;;;;;4.97;4.67;;;;;;;14.20;nan;96538.50;4883777;28;20325;-60
2023/08/28 02:53:49;;;;;;;5.80;4.87;;;;;;;14.16;nan;96529.31;5012478;28;20216;-60
2023/08/28 02:56:25;;;;;;;5.53;5.03;;;;;;;14.12;nan;96520.94;5010155;28;20212;-64
2023/08/28 02:58:54;;;;;;;5.07;4.77;;;;;;;14.19;nan;96512.88;5011824;28;20239;-62
2023/08/28 03:01:21;;;;;;;5.23;4.93;;;;;;;14.26;nan;96507.50;4953348;28;20208;-61
2023/08/28 03:03:49;;;;;;;5.63;5.10;;;;;;;14.24;nan;96496.25;5016582;28;20636;-62
2023/08/28 03:06:17;;;;;;;5.57;5.17;;;;;;;14.21;nan;96499.34;4962343;28;20224;-59
2023/08/28 03:08:45;;;;;;;5.53;5.23;;;;;;;14.12;nan;96475.66;5021446;28;20240;-63
2023/08/28 03:11:14;;;;;;;5.80;5.23;;;;;;;14.14;nan;96491.44;5018476;28;20200;-63
2023/08/28 03:13:42;;;;;;;5.67;5.27;;;;;;;14.14;nan;96484.25;5020753;28;20208;-61
2023/08/28 03:16:10;;;;;;;5.53;5.03;;;;;;;14.13;nan;96479.16;5008679;28;20271;-64
2023/08/28 03:18:37;;;;;;;5.53;5.13;;;;;;;14.07;nan;96474.72;5017305;28;20561;-62
2023/08/28 03:21:06;;;;;;;5.00;4.70;;;;;;;14.12;nan;96466.88;4880646;28;20541;-63
2023/08/28 03:23:33;;;;;;;5.10;4.80;;;;;;;14.15;nan;96461.09;5014236;28;20208;-64
2023/08/28 03:26:02;;;;;;;4.73;4.53;;;;;;;14.14;nan;96464.81;5010319;28;20211;-61
2023/08/28 03:28:31;;;;;;;5.03;4.63;;;;;;;14.17;nan;96469.69;5014868;28;20232;-59
2023/08/28 03:30:59;;;;;;;5.17;4.77;;;;;;;14.17;nan;96462.47;5014708;28;20234;-65
2023/08/28 03:33:27;;;;;;;5.33;4.87;;;;;;;14.13;nan;96463.97;4879076;28;20315;-62
2023/08/28 03:35:55;;;;;;;5.27;4.97;;;;;;;14.24;nan;96459.75;5014256;28;20201;-61
2023/08/28 03:38:22;;;;;;;5.10;4.80;;;;;;;14.29;nan;96456.41;5011308;28;20221;-63
2023/08/28 03:40:50;;;;;;;4.70;4.37;;;;;;;14.31;nan;96455.13;5017871;28;20373;-63
2023/08/28 03:43:18;;;;;;;4.87;4.57;;;;;;;14.34;nan;96453.88;5013080;28;20198;-62
2023/08/28 03:45:47;;;;;;;4.40;4.20;;;;;;;14.33;nan;96452.25;5014931;28;20922;-61
2023/08/28 03:48:15;;;;;;;5.43;5.03;;;;;;;14.36;nan;96458.97;5011884;28;20220;-65
2023/08/28 03:50:42;;;;;;;5.30;4.83;;;;;;;14.38;nan;96460.38;5015613;28;20211;-63
2023/08/28 03:53:10;;;;;;;4.73;4.33;;;;;;;14.39;nan;96462.00;4997238;28;20228;-63
2023/08/28 03:55:38;;;;;;;5.07;4.67;;;;;;;14.42;nan;96466.09;5013241;28;20203;-61
2023/08/28 03:58:05;;;;;;;4.83;4.30;;;;;;;14.44;nan;96458.69;5011703;28;20235;-62
2023/08/28 04:00:33;;;;;;;4.60;4.30;;;;;;;14.46;nan;96469.91;5016561;28;20207;-60
2023/08/28 04:03:03;;;;;;;4.37;4.10;;;;;;;14.50;nan;96468.44;4898571;28;20208;-63
2023/08/28 04:05:32;;;;;;;4.40;4.10;;;;;;;14.48;nan;96468.63;5019410;28;20208;-63
2023/08/28 04:08:00;;;;;;;4.40;4.10;;;;;;;14.50;nan;96475.59;5018395;28;20537;-62
2023/08/28 04:10:28;;;;;;;4.70;4.30;;;;;;;14.52;nan;96471.69;5015754;28;20235;-64
2023/08/28 04:12:56;;;;;;;4.93;4.50;;;;;;;14.53;nan;96467.97;5016179;28;20416;-64
2023/08/28 04:15:24;;;;;;;4.80;4.47;;;;;;;14.51;nan;96463.88;5017875;28;20200;-64
2023/08/28 04:17:52;;;;;;;4.80;4.40;;;;;;;14.54;nan;96466.94;4962706;28;20441;-62
2023/08/28 04:20:21;;;;;;;6.63;4.23;;;;;;;14.53;nan;96469.81;4971952;28;20910;-64
2023/08/28 04:22:49;;;;;;;4.37;4.07;;;;;;;14.52;nan;96462.84;4936751;28;20557;-59
2023/08/28 04:25:17;;;;;;;5.03;4.33;;;;;;;14.62;nan;96481.78;5020654;28;20212;-61
2023/08/28 04:27:44;;;;;;;5.40;4.00;;;;;;;14.55;nan;96475.72;5013511;28;20229;-63
2023/08/28 04:30:13;;;;;;;4.80;4.50;;;;;;;14.50;nan;96472.94;5018571;28;20231;-64
2023/08/28 04:32:40;;;;;;;4.37;4.17;;;;;;;14.52;nan;96474.34;5017431;28;20197;-61
2023/08/28 04:35:09;;;;;;;4.37;4.07;;;;;;;14.50;nan;96478.25;5017893;28;20212;-63
2023/08/28 04:37:38;;;;;;;3.87;3.67;;;;;;;14.47;nan;96480.34;4905776;28;20228;-61
2023/08/28 04:40:08;;;;;;;5.00;4.60;;;;;;;14.40;nan;96482.28;5017070;28;20215;-63
2023/08/28 04:42:35;;;;;;;4.57;4.10;;;;;;;14.35;nan;96490.16;5014349;28;20249;-62
2023/08/28 04:45:04;;;;;;;4.90;4.57;;;;;;;14.31;nan;96488.97;5015768;28;20198;-61
2023/08/28 04:47:32;;;;;;;4.80;4.50;;;;;;;14.30;nan;96484.69;5016258;28;20285;-64
2023/08/28 04:49:59;;;;;;;5.53;5.23;;;;;;;14.37;nan;96492.56;5018199;28;20234;-62
2023/08/28 04:52:27;;;;;;;5.27;4.77;;;;;;;14.34;nan;96496.50;4955582;28;20219;-63
2023/08/28 04:54:56;;;;;;;5.67;5.27;;;;;;;14.41;nan;96486.56;5017425;28;20220;-63
2023/08/28 04:57:24;;;;;;;5.20;4.90;;;;;;;14.46;nan;96483.25;5011459;28;20947;-61
2023/08/28 04:59:52;;;;;;;5.13;4.83;;;;;;;14.44;nan;96491.44;5016301;28;20526;-62
2023/08/28 05:02:20;;;;;;;7.40;5.57;;;;;;;14.40;nan;96490.28;5015943;28;20723;-57
2023/08/28 05:04:48;;;;;;;6.53;6.00;;;;;;;14.48;nan;96489.97;5013590;28;20307;-61
2023/08/28 05:07:16;;;;;;;5.70;5.23;;;;;;;14.51;nan;96493.22;5018232;28;20228;-62
2023/08/28 05:09:43;;;;;;;6.70;6.03;;;;;;;14.53;nan;96488.47;5016546;28;20231;-62
2023/08/28 05:12:12;;;;;;;6.03;5.50;;;;;;;14.56;nan;96482.69;4892937;28;20216;-62
2023/08/28 05:14:40;;;;;;;5.77;5.47;;;;;;;14.59;nan;96480.38;5013199;28;20211;-59
2023/08/28 05:17:08;;;;;;;6.27;5.87;;;;;;;14.64;nan;96477.06;5013125;28;20326;-61
2023/08/28 05:19:36;;;;;;;5.27;4.97;;;;;;;14.60;nan;96470.56;5012844;28;20204;-62
2023/08/28 05:22:04;;;;;;;5.93;5.53;;;;;;;14.63;nan;96464.75;5011780;28;20205;-63
2023/08/28 05:24:31;;;;;;;6.30;5.80;;;;;;;14.65;nan;96462.69;5010641;28;20612;-65
2023/08/28 05:26:59;;;;;;;5.50;5.10;;;;;;;14.67;nan;96459.78;4958364;28;20239;-59
2023/08/28 05:29:28;;;;;;;5.60;5.30;;;;;;;14.67;nan;96470.44;5014204;28;20232;-60
2023/08/28 05:31:56;;;;;;;5.60;5.30;;;;;;;14.69;nan;96471.00;5011620;28;20208;-58
2023/08/28 05:34:24;;;;;;;5.83;5.30;;;;;;;14.64;nan;96460.22;5014282;28;20215;-60
2023/08/28 05:36:51;;;;;;;5.73;5.33;;;;;;;14.61;nan;96461.50;5011878;28;20207;-60
2023/08/28 05:39:19;;;;;;;5.33;4.93;;;;;;;14.64;nan;96458.38;5019180;28;20212;-60
2023/08/28 05:41:47;;;;;;;6.97;6.10;;;;;;;14.66;nan;96450.16;5014581;28;20755;-58
2023/08/28 05:44:13;;;;;;;6.43;5.93;;;;;;;14.68;nan;96443.56;5015518;28;20246;-62
2023/08/28 05:46:42;;;;;;;5.67;5.27;;;;;;;14.75;nan;96449.63;4881934;28;20231;-62
2023/08/28 05:49:10;;;;;;;5.77;5.37;;;;;;;14.81;nan;96457.75;4901711;28;20204;-61
2023/08/28 05:51:38;;;;;;;5.97;5.57;;;;;;;14.83;nan;96455.66;5015657;28;20205;-60
2023/08/28 05:54:06;;;;;;;7.23;6.10;;;;;;;14.80;nan;96448.13;4948591;28;20213;-65
2023/08/28 05:56:33;;;;;;;6.30;5.90;;;;;;;14.89;nan;96447.56;5015466;28;20204;-62
2023/08/28 05:59:01;;;;;;;6.80;6.20;;;;;;;14.91;nan;96436.66;4961031;28;20607;-64
2023/08/28 06:01:29;;;;;;;6.67;6.20;;;;;;;14.98;nan;96432.06;5020290;28;20898;-64
2023/08/28 06:03:58;;;;;;;7.07;6.50;;;;;;;14.95;nan;96429.00;4950010;28;20215;-63
2023/08/28 06:06:26;;;;;;;6.00;5.60;;;;;;;14.99;nan;96425.66;5014669;28;20431;-57
2023/08/28 06:08:54;;;;;;;6.67;5.90;;;;;;;14.90;nan;96422.53;5010345;28;20726;-63
2023/08/28 06:11:21;;;;;;;7.03;5.77;;;;;;;14.91;nan;96412.66;5017112;28;20227;-62
2023/08/28 06:13:49;;;;;;;6.47;5.97;;;;;;;15.02;nan;96403.88;4957611;28;21410;-60
2023/08/28 06:16:17;;;;;;;6.37;5.77;;;;;;;15.14;nan;96393.16;5018351;28;20758;-62
2023/08/28 06:18:44;;;;;;;5.80;5.40;;;;;;;15.21;nan;96395.72;4888189;28;20232;-61
2023/08/28 06:21:14;;;;;;;5.63;5.33;;;;;;;15.42;nan;96390.84;5011187;28;20218;-63
2023/08/28 06:23:41;;;;;;;5.87;5.37;;;;;;;15.34;nan;96395.50;5011211;28;20212;-61
2023/08/28 06:26:09;;;;;;;5.70;5.17;;;;;;;15.43;nan;96387.13;5014060;28;20218;-57
2023/08/28 06:28:37;;;;;;;6.40;5.83;;;;;;;15.47;nan;96378.41;4990127;28;20252;-61
2023/08/28 06:31:05;;;;;;;5.23;4.93;;;;;;;15.60;nan;96371.19;5015621;28;21427;-62
2023/08/28 06:33:32;;;;;;;5.10;4.70;;;;;;;15.66;nan;96372.09;4946817;28;20657;-63
2023/08/28 06:36:00;;;;;;;5.30;4.90;;;;;;;15.58;nan;96374.09;5017803;28;20203;-62
2023/08/28 06:38:29;;;;;;;5.00;4.70;;;;;;;15.59;nan;96361.56;5011025;28;20220;-61
2023/08/28 06:40:57;;;;;;;5.17;4.87;;;;;;;15.47;nan;96356.25;5015485;28;20342;-62
2023/08/28 06:43:25;;;;;;;4.77;4.33;;;;;;;15.45;nan;96339.66;4953175;28;20217;-61
2023/08/28 06:45:53;;;;;;;5.03;4.73;;;;;;;15.45;nan;96329.00;5011976;28;20204;-60
2023/08/28 06:48:21;;;;;;;5.33;5.03;;;;;;;15.51;nan;96328.03;5014918;28;20234;-63
2023/08/28 06:50:51;;;;;;;3.63;3.40;;;;;;;15.48;nan;96310.63;5015004;28;20418;-60
2023/08/28 06:53:19;;;;;;;3.80;3.27;;;;;;;15.40;nan;96305.66;4904820;28;20216;-61
2023/08/28 06:55:48;;;;;;;3.57;3.37;;;;;;;15.31;nan;96305.22;5016940;28;20604;-61
2023/08/28 06:58:15;;;;;;;3.30;3.10;;;;;;;15.28;nan;96308.34;5010102;28;20262;-61
2023/08/28 07:00:43;;;;;;;3.20;3.00;;;;;;;15.18;nan;96297.47;5015138;28;20200;-61
2023/08/28 07:03:11;;;;;;;3.60;3.30;;;;;;;15.11;nan;96291.47;5014266;28;20204;-60
2023/08/28 07:05:39;;;;;;;3.00;2.80;;;;;;;15.12;nan;96288.53;5016600;28;20211;-62
2023/08/28 07:08:07;;;;;;;2.87;2.67;;;;;;;15.06;nan;96292.16;4946082;28;20984;-58
2023/08/28 07:10:35;;;;;;;3.07;2.83;;;;;;;14.91;nan;96303.31;5016311;28;20239;-60
2023/08/28 07:13:04;;;;;;;2.30;2.20;;;;;;;14.88;nan;96325.09;5009039;28;20735;-60
2023/08/28 07:15:58;;;;;;;2.40;2.30;;;;;;;14.78;nan;96336.38;5016061;28;20252;-60
2023/08/28 07:18:26;;;;;;;2.80;2.70;;;;;;;14.78;nan;96347.03;4957647;28;20243;-61
2023/08/28 07:20:54;;;;;;;2.37;2.27;;;;;;;14.65;nan;96358.72;5015081;28;20204;-60
2023/08/28 07:23:23;;;;;;;2.30;2.20;;;;;;;14.56;nan;96360.88;5014066;28;20588;-60
2023/08/28 07:25:50;;;;;;;2.50;2.40;;;;;;;14.61;nan;96362.88;5013350;28;21393;-59
2023/08/28 07:28:20;;;;;;;2.50;2.40;;;;;;;14.64;nan;96367.75;4904225;28;20228;-60
2023/08/28 07:30:48;;;;;;;2.83;2.50;;;;;;;14.53;nan;96366.69;5014323;28;20232;-62
2023/08/28 07:33:17;;;;;;;2.37;2.07;;;;;;;14.47;nan;96370.25;5010805;28;20229;-61
2023/08/28 07:35:46;;;;;;;2.83;2.67;;;;;;;14.40;nan;96372.22;4945170;28;20235;-61
2023/08/28 07:38:15;;;;;;;3.10;2.80;;;;;;;14.44;nan;96374.19;5016208;28;20411;-60
2023/08/28 07:40:42;;;;;;;2.47;2.33;;;;;;;14.46;nan;96372.09;4942125;28;20228;-61
2023/08/28 07:43:10;;;;;;;2.80;2.70;;;;;;;14.41;nan;96369.31;5014938;28;20212;-61
2023/08/28 07:45:39;;;;;;;2.80;2.57;;;;;;;14.31;nan;96353.88;5006058;28;20244;-62
2023/08/28 07:48:08;;;;;;;2.23;2.13;;;;;;;14.27;nan;96333.28;5012224;28;20221;-60
2023/08/28 07:50:35;;;;;;;2.80;2.70;;;;;;;14.22;nan;96328.63;4951119;28;20239;-60
2023/08/28 07:53:04;;;;;;;3.17;2.97;;;;;;;14.26;nan;96326.31;5016402;28;20208;-59
2023/08/28 07:55:31;;;;;;;2.63;2.43;;;;;;;14.30;nan;96319.47;5009109;28;20714;-61
2023/08/28 07:57:59;;;;;;;2.60;2.40;;;;;;;14.25;nan;96317.50;5010633;28;20236;-61
2023/08/28 08:00:27;;;;;;;2.53;2.33;;;;;;;14.19;nan;96313.88;4892377;28;20725;-60
2023/08/28 08:02:56;;;;;;;2.50;2.30;;;;;;;14.09;nan;96316.31;4884623;28;20935;-59
2023/08/28 08:05:24;;;;;;;2.47;2.33;;;;;;;14.12;nan;96323.03;5014518;28;20275;-62
2023/08/28 08:07:52;;;;;;;2.47;2.33;;;;;;;14.10;nan;96314.47;4960386;28;20736;-61
2023/08/28 08:10:20;;;;;;;2.53;2.33;;;;;;;14.09;nan;96315.50;5017769;28;20205;-60
2023/08/28 08:12:47;;;;;;;3.07;2.40;;;;;;;14.14;nan;96316.44;4954314;28;20231;-57
2023/08/28 08:15:15;;;;;;;2.77;2.57;;;;;;;14.02;nan;96312.94;5016465;28;20211;-62
2023/08/28 08:17:43;;;;;;;2.23;2.13;;;;;;;13.93;nan;96307.09;4962611;28;20220;-57
2023/08/28 08:20:15;;;;;;;2.80;2.60;;;;;;;14.04;nan;96342.81;5014265;28;20216;-60
2023/08/28 08:22:43;;;;;;;2.57;2.40;;;;;;;14.10;nan;96349.09;5011202;28;20720;-62
2023/08/28 08:25:11;;;;;;;2.47;2.30;;;;;;;14.28;nan;96340.22;5016001;28;20375;-62
2023/08/28 08:27:39;;;;;;;3.37;2.33;;;;;;;14.37;nan;96349.50;4959307;28;20238;-60
2023/08/28 08:30:09;;;;;;;2.73;2.53;;;;;;;14.33;nan;96333.16;5013754;28;20728;-61
2023/08/28 08:32:36;;;;;;;3.13;2.77;;;;;;;14.36;nan;96325.72;5012941;28;20232;-62
2023/08/28 08:35:05;;;;;;;3.03;2.87;;;;;;;14.45;nan;96324.38;5014564;28;20282;-60
2023/08/28 08:37:34;;;;;;;3.20;2.90;;;;;;;14.48;nan;96305.25;4884685;28;20713;-60
2023/08/28 08:40:03;;;;;;;2.53;2.43;;;;;;;14.57;nan;96295.88;5013702;28;20294;-60
2023/08/28 08:42:31;;;;;;;2.60;2.50;;;;;;;14.53;nan;96288.56;5009512;28;20306;-62
2023/08/28 08:44:59;;;;;;;2.40;2.27;;;;;;;14.55;nan;96287.28;5015693;28;20407;-60
2023/08/28 08:47:26;;;;;;;2.60;2.50;;;;;;;14.55;nan;96283.81;4961241;28;20433;-59
2023/08/28 08:49:57;;;;;;;3.10;2.90;;;;;;;14.50;nan;96271.19;4989034;28;22611;-62
2023/08/28 08:52:25;;;;;;;3.10;2.90;;;;;;;14.54;nan;96282.19;4997200;28;20224;-61
2023/08/28 08:54:58;;;;;;;3.73;2.83;;;;;;;14.42;nan;96288.31;5017174;28;20623;-62
2023/08/28 08:57:29;;;;;;;3.67;3.47;;;;;;;14.43;nan;96281.94;5019394;28;20823;-61
2023/08/28 08:59:58;;;;;;;3.60;3.40;;;;;;;14.35;nan;96284.13;4990482;28;20884;-60
2023/08/28 09:02:26;;;;;;;3.77;3.47;;;;;;;14.43;nan;96303.28;4997206;28;20469;-58
2023/08/28 09:04:54;;;;;;;5.80;4.00;;;;;;;14.38;nan;96305.00;5019496;28;20215;-61
2023/08/28 09:07:22;;;;;;;5.00;4.70;;;;;;;14.44;nan;96320.09;5016132;28;20956;-60
2023/08/28 09:09:54;;;;;;;5.00;4.57;;;;;;;14.40;nan;96332.25;4964946;28;20240;-59
2023/08/28 09:12:26;;;;;;;5.60;5.20;;;;;;;14.43;nan;96337.91;4970484;28;20227;-61
2023/08/28 09:14:54;;;;;;;6.10;5.60;;;;;;;14.41;nan;96337.34;5015768;28;20579;-62
2023/08/28 09:17:22;;;;;;;5.50;5.10;;;;;;;14.29;nan;96339.97;5016910;28;20890;-63
2023/08/28 09:19:50;;;;;;;4.83;4.53;;;;;;;14.18;nan;96344.22;5003885;28;20199;-63
2023/08/28 09:22:21;;;;;;;5.37;4.97;;;;;;;14.24;nan;96363.03;4981064;28;20216;-60
2023/08/28 09:24:51;;;;;;;6.10;5.70;;;;;;;14.17;nan;96379.91;5013113;28;20243;-60
2023/08/28 09:27:19;;;;;;;6.27;5.87;;;;;;;14.16;nan;96388.94;5014080;28;20242;-59
2023/08/28 09:29:48;;;;;;;6.80;6.20;;;;;;;14.22;nan;96402.41;5014545;28;20544;-61
2023/08/28 09:32:28;;;;;;;6.43;5.93;;;;;;;14.23;nan;96398.72;5013708;28;20227;-62
2023/08/28 09:34:56;;;;;;;6.87;6.33;;;;;;;14.23;nan;96382.72;4985645;28;20221;-60
2023/08/28 09:37:24;;;;;;;6.10;5.70;;;;;;;14.40;nan;96393.53;4991420;28;20248;-60
2023/08/28 09:40:00;;;;;;;6.73;6.23;;;;;;;14.42;nan;96378.94;4970094;28;23175;-60
2023/08/28 09:42:29;;;;;;;6.67;6.17;;;;;;;14.56;nan;96405.38;4975850;28;20246;-60
2023/08/28 09:44:58;;;;;;;6.43;6.03;;;;;;;14.55;nan;96425.91;5017379;28;20770;-57
2023/08/28 09:47:28;;;;;;;6.47;5.87;;;;;;;14.50;nan;96436.44;5018044;28;20253;-62
2023/08/28 09:49:58;;;;;;;5.43;5.13;;;;;;;14.46;nan;96433.41;5013611;28;20212;-61
2023/08/28 09:52:26;;;;;;;5.60;5.20;;;;;;;14.51;nan;96443.41;5015853;28;20216;-62
2023/08/28 09:55:01;;;;;;;5.60;5.20;;;;;;;14.48;nan;96426.00;4990567;28;20708;-60
2023/08/28 09:57:29;;;;;;;4.60;4.30;;;;;;;14.56;nan;96442.69;4999057;28;20234;-61
2023/08/28 09:59:56;;;;;;;5.47;5.07;;;;;;;14.60;nan;96439.34;5014636;28;20208;-62
2023/08/28 10:02:27;;;;;;;4.80;4.50;;;;;;;14.74;nan;96442.66;5017632;28;20246;-58
2023/08/28 10:04:57;;;;;;;4.23;4.00;;;;;;;14.82;nan;96430.03;5010763;28;20204;-64
2023/08/28 10:07:24;;;;;;;4.60;4.23;;;;;;;15.01;nan;96433.44;5015735;28;20323;-60
2023/08/28 10:09:54;;;;;;;4.40;4.10;;;;;;;15.05;nan;96403.41;4958441;28;21102;-60
2023/08/28 10:12:30;;;;;;;4.90;4.50;;;;;;;15.10;nan;96402.69;4980533;28;20227;-61
2023/08/28 10:15:00;;;;;;;4.50;4.30;;;;;;;15.25;nan;96399.56;5013859;28;20204;-62
2023/08/28 10:17:30;;;;;;;4.70;4.30;;;;;;;15.39;nan;96391.31;4911630;28;20236;-60
2023/08/28 10:20:00;;;;;;;4.83;4.53;;;;;;;15.41;nan;96365.22;4948883;28;20204;-59
2023/08/28 10:22:28;;;;;;;4.50;4.30;;;;;;;15.65;nan;96336.59;5016705;28;20208;-62
2023/08/28 10:24:58;;;;;;;5.10;4.43;;;;;;;15.80;nan;96329.91;5010128;28;21570;-62
2023/08/28 10:27:27;;;;;;;4.47;4.17;;;;;;;15.79;nan;96305.06;5015959;28;20224;-60
2023/08/28 10:29:55;;;;;;;3.90;3.70;;;;;;;15.60;nan;96289.22;4935802;28;20325;-61
2023/08/28 10:32:23;;;;;;;3.93;3.60;;;;;;;15.60;nan;96273.22;4949417;28;20873;-60
2023/08/28 10:34:53;;;;;;;3.90;3.60;;;;;;;15.58;nan;96269.19;5014259;28;20218;-61
2023/08/28 10:37:20;;;;;;;3.30;3.10;;;;;;;15.78;nan;96261.53;4974071;28;23011;-60
2023/08/28 10:39:57;;;;;;;4.17;3.73;;;;;;;16.08;nan;96261.50;5019913;28;20653;-61
2023/08/28 10:42:26;;;;;;;2.60;2.50;;;;;;;15.94;nan;96250.31;4976193;28;20275;-62
2023/08/28 10:44:55;;;;;;;3.30;3.10;;;;;;;15.78;nan;96234.81;5015751;28;20212;-62
2023/08/28 10:47:24;;;;;;;2.13;2.00;;;;;;;15.58;nan;96213.09;5013093;28;20285;-60
2023/08/28 10:49:56;;;;;;;2.47;2.30;;;;;;;15.32;nan;96200.09;5015390;28;20222;-61
2023/08/28 10:52:23;;;;;;;2.13;2.03;;;;;;;15.41;nan;96195.19;4894327;28;21399;-57
2023/08/28 10:54:51;;;;;;;2.60;2.40;;;;;;;15.68;nan;96186.59;5013935;28;20213;-62
2023/08/28 10:57:23;;;;;;;3.13;2.83;;;;;;;15.94;nan;96163.00;5012853;28;20872;-61
2023/08/28 10:59:50;;;;;;;2.67;2.57;;;;;;;16.47;nan;96187.53;5014561;28;20402;-60
2023/08/28 11:02:18;;;;;;;2.30;2.20;;;;;;;17.04;nan;96174.09;4943276;28;20995;-61
2023/08/28 11:04:46;;;;;;;2.70;2.50;;;;;;;17.16;nan;96161.41;5018688;28;20581;-62
2023/08/28 11:07:43;;;;;;;2.27;2.17;;;;;;;17.16;nan;96147.19;5011232;28;21767;-61
2023/08/28 11:10:19;;;;;;;2.47;2.37;;;;;;;17.96;nan;96161.84;5011852;28;20204;-62
2023/08/28 11:12:54;;;;;;;1.97;1.87;;;;;;;18.54;nan;96171.91;4981970;28;20223;-62
2023/08/28 11:15:27;;;;;;;2.40;2.30;;;;;;;18.47;nan;96170.28;5015749;28;20451;-61
2023/08/28 11:18:14;;;;;;;1.80;1.70;;;;;;;18.16;nan;96155.84;4945655;28;20478;-62
2023/08/28 11:20:41;;;;;;;2.43;1.80;;;;;;;17.89;nan;96159.41;5018775;28;20215;-63
2023/08/28 11:23:20;;;;;;;1.50;1.50;;;;;;;18.39;nan;96161.91;4882060;28;20595;-62
2023/08/28 11:25:48;;;;;;;1.80;1.70;;;;;;;18.39;nan;96175.31;5021120;28;20204;-63
2023/08/28 11:28:32;;;;;;;1.73;1.63;;;;;;;18.98;nan;96162.75;4990232;28;20230;-62
2023/08/28 11:31:02;;;;;;;1.90;1.80;;;;;;;18.90;nan;96161.34;5017953;28;20210;-62
2023/08/28 11:33:38;;;;;;;1.20;1.20;;;;;;;18.66;nan;96157.22;4947020;28;20896;-62
2023/08/28 11:36:06;;;;;;;1.90;1.80;;;;;;;18.90;nan;96164.81;5017243;28;20230;-63
2023/08/28 11:38:36;;;;;;;1.13;1.13;;;;;;;19.23;nan;96180.81;5014036;28;20228;-62
2023/08/28 11:41:07;;;;;;;1.60;1.60;;;;;;;19.19;nan;96169.00;5014739;28;20218;-59
2023/08/28 11:43:36;;;;;;;1.50;1.50;;;;;;;19.50;nan;96147.53;4963122;28;20668;-62
2023/08/28 11:46:05;;;;;;;1.20;1.20;;;;;;;19.36;nan;96153.44;5012973;28;20994;-57
2023/08/28 11:48:34;;;;;;;1.57;1.47;;;;;;;19.88;nan;96137.34;4949642;28;20239;-59
2023/08/28 11:51:03;;;;;;;1.10;1.10;;;;;;;19.88;nan;96136.56;5014100;28;20216;-60
2023/08/28 11:53:32;;;;;;;1.40;1.30;;;;;;;20.19;nan;96155.38;5014527;28;20228;-62
2023/08/28 11:56:03;;;;;;;1.67;1.57;;;;;;;19.81;nan;96147.56;5015221;28;20212;-61
2023/08/28 11:58:32;;;;;;;1.03;1.03;;;;;;;19.15;nan;96149.13;4895992;28;20301;-61
2023/08/28 12:01:01;;;;;;;1.30;1.30;;;;;;;18.82;nan;96161.84;5014071;28;20593;-60